Time;durP1;ratioP1;P1;durP2;ratioP2;P2;SDS_P1;SDS_P2;PMS_P1;PMS_P2;Temp;Humidity;BMP_temperature;BMP_pressure;BME280_temperature;BME280_humidity;BME280_pressure;Samples;Min_cycle;Max_cycle;Signal;HPM_P1;HPM_P2
2023/01/15 00:06:46;;;;;;;2.72;1.00;;;7.70;57.20;;;;;;20394579;28;20067;-44
2023/01/15 00:16:51;;;;;;;2.45;0.80;;;7.70;55.40;;;;;;20408631;28;20047;-44
2023/01/15 00:37:11;;;;;;;2.85;1.27;;;7.80;51.70;;;;;;20398857;28;20115;-44
2023/01/15 00:47:15;;;;;;;2.03;0.90;;;7.70;52.60;;;;;;20401869;28;20480;-44
2023/01/15 00:57:16;;;;;;;5.15;1.58;;;7.70;53.20;;;;;;20390948;28;20115;-44
2023/01/15 01:07:17;;;;;;;11.38;2.80;;;7.70;52.00;;;;;;20398831;28;20143;-45
2023/01/15 01:17:18;;;;;;;5.38;1.88;;;7.70;53.10;;;;;;20409666;28;20980;-45
2023/01/15 01:27:19;;;;;;;6.35;1.33;;;7.70;49.80;;;;;;20405038;28;20205;-45
2023/01/15 01:37:20;;;;;;;1.75;0.80;;;7.70;47.20;;;;;;20402446;28;20725;-44
2023/01/15 01:47:24;;;;;;;13.30;1.20;;;7.60;48.00;;;;;;20409870;28;20434;-44
2023/01/15 01:57:27;;;;;;;5.93;1.50;;;7.50;48.70;;;;;;20406799;28;20086;-44
2023/01/15 02:07:32;;;;;;;2.03;0.68;;;7.60;47.60;;;;;;20394617;28;20570;-44
2023/01/15 02:17:52;;;;;;;4.43;1.55;;;7.60;45.30;;;;;;20406692;28;20075;-44
2023/01/15 02:28:00;;;;;;;2.58;0.70;;;7.50;45.30;;;;;;20393387;28;21907;-44
2023/01/15 02:38:07;;;;;;;1.90;0.80;;;7.50;46.30;;;;;;20395935;28;20195;-45
2023/01/15 02:48:12;;;;;;;3.03;1.10;;;7.50;45.20;;;;;;20400686;28;20571;-44
2023/01/15 02:58:19;;;;;;;3.15;1.10;;;7.50;43.20;;;;;;20400246;28;20114;-44
2023/01/15 03:08:20;;;;;;;;;;;7.50;43.20;;;;;;20394043;28;20048;-44
2023/01/15 03:18:22;;;;;;;2.45;0.95;;;7.30;45.30;;;;;;20393189;28;19915;-44
2023/01/15 03:28:27;;;;;;;5.20;1.08;;;7.30;46.10;;;;;;20404720;28;20499;-44
2023/01/15 03:38:37;;;;;;;7.55;1.30;;;7.20;46.30;;;;;;21745639;23;20833;-42
2023/01/15 03:49:01;;;;;;;1.33;0.88;;;7.00;46.20;;;;;;20465304;28;20076;-42
2023/01/15 03:59:32;;;;;;;3.03;1.20;;;7.10;44.70;;;;;;20466621;28;20126;-42
2023/01/15 04:09:38;;;;;;;1.73;0.73;;;7.00;44.70;;;;;;20465369;28;21944;-42
2023/01/15 04:19:38;;;;;;;4.85;1.45;;;7.00;46.00;;;;;;20465099;28;20959;-42
2023/01/15 04:29:39;;;;;;;5.18;1.75;;;7.10;45.60;;;;;;20465499;28;20051;-43
2023/01/15 04:39:40;;;;;;;4.53;1.08;;;7.10;48.50;;;;;;20462029;28;20047;-42
2023/01/15 04:49:42;;;;;;;4.95;1.63;;;7.20;48.10;;;;;;20466260;28;20150;-43
2023/01/15 04:59:43;;;;;;;4.95;1.98;;;7.20;48.70;;;;;;20453981;28;20043;-43
2023/01/15 05:09:44;;;;;;;7.57;1.30;;;7.20;46.80;;;;;;20451009;28;22170;-42
2023/01/15 05:19:45;;;;;;;8.15;2.38;;;7.20;45.90;;;;;;20456652;28;21439;-42
2023/01/15 05:29:46;;;;;;;6.95;1.77;;;7.30;45.50;;;;;;20455045;28;20059;-42
2023/01/15 05:39:47;;;;;;;3.15;1.05;;;7.20;43.20;;;;;;20436740;28;20077;-42
2023/01/15 05:49:49;;;;;;;1.42;0.60;;;7.20;41.90;;;;;;20453993;28;20166;-42
2023/01/15 05:59:52;;;;;;;3.33;0.80;;;7.10;35.80;;;;;;20471492;28;20186;-42
2023/01/15 06:09:53;;;;;;;1.02;0.50;;;7.00;33.80;;;;;;20470732;28;20127;-42
2023/01/15 06:19:54;;;;;;;2.35;0.43;;;6.80;30.20;;;;;;20474721;28;20040;-42
2023/01/15 06:29:57;;;;;;;4.70;0.95;;;6.70;30.80;;;;;;20472748;28;20043;-42
2023/01/15 06:39:58;;;;;;;3.47;1.23;;;6.40;32.50;;;;;;20465514;28;20484;-42
2023/01/15 06:49:59;;;;;;;7.20;1.50;;;6.50;32.90;;;;;;20471426;28;20137;-42
2023/01/15 07:00:00;;;;;;;2.97;0.93;;;6.40;32.40;;;;;;20468351;28;20170;-42
2023/01/15 07:10:01;;;;;;;2.70;0.75;;;6.50;31.60;;;;;;20465290;28;20070;-42
2023/01/15 07:20:04;;;;;;;2.45;0.90;;;6.50;33.80;;;;;;20471627;28;20146;-42
2023/01/15 07:30:05;;;;;;;2.65;0.70;;;6.50;31.70;;;;;;20470160;28;20134;-42
2023/01/15 07:40:07;;;;;;;2.08;0.40;;;6.40;33.10;;;;;;20461648;28;20612;-42
2023/01/15 07:50:15;;;;;;;2.95;1.10;;;6.40;33.30;;;;;;20468626;28;20130;-42
2023/01/15 08:00:20;;;;;;;5.43;1.00;;;6.50;34.90;;;;;;20459808;28;20178;-42
2023/01/15 08:10:21;;;;;;;5.32;2.53;;;6.70;31.60;;;;;;20461885;28;20589;-43
2023/01/15 08:20:25;;;;;;;3.50;1.35;;;6.80;31.80;;;;;;20465202;28;20125;-42
2023/01/15 08:30:26;;;;;;;4.05;1.95;;;6.80;34.40;;;;;;20471549;28;20051;-42
2023/01/15 08:40:27;;;;;;;3.67;0.73;;;7.10;33.30;;;;;;20462082;28;20081;-42
2023/01/15 08:50:28;;;;;;;2.35;0.73;;;7.20;34.50;;;;;;20459242;28;20093;-42
2023/01/15 09:00:29;;;;;;;7.07;1.90;;;7.20;33.30;;;;;;20463007;28;20125;-42
2023/01/15 09:10:30;;;;;;;5.57;1.30;;;7.30;35.60;;;;;;20452889;28;20050;-42
2023/01/15 09:20:31;;;;;;;3.05;0.93;;;7.20;35.30;;;;;;20400477;28;20134;-42
2023/01/15 09:30:33;;;;;;;4.72;1.38;;;7.30;35.90;;;;;;20474399;28;20086;-42
2023/01/15 09:40:56;;;;;;;2.55;1.02;;;7.30;34.80;;;;;;20481299;28;20579;-42
2023/01/15 09:51:11;;;;;;;3.53;1.42;;;7.40;34.10;;;;;;20483400;28;20865;-42
2023/01/15 10:01:19;;;;;;;3.20;0.63;;;7.50;33.60;;;;;;20468684;28;20173;-41
2023/01/15 10:22:11;;;;;;;5.47;2.03;;;7.50;40.50;;;;;;20463579;28;20717;-41
2023/01/15 10:32:23;;;;;;;4.80;1.23;;;7.10;50.60;;;;;;20486020;28;20833;-41
2023/01/15 10:42:45;;;;;;;2.95;1.13;;;7.30;45.10;;;;;;20475849;28;20101;-42
2023/01/15 10:53:12;;;;;;;1.63;1.13;;;7.40;44.40;;;;;;20487100;28;21741;-42
2023/01/15 11:03:18;;;;;;;6.93;2.80;;;7.40;44.50;;;;;;20491167;28;20091;-41
2023/01/15 11:23:42;;;;;;;7.50;2.40;;;7.50;42.40;;;;;;20487987;28;20907;-42
2023/01/15 11:34:01;;;;;;;2.65;0.88;;;7.40;44.10;;;;;;20484312;28;20129;-42
2023/01/15 11:54:21;;;;;;;4.55;1.50;;;7.60;43.50;;;;;;20484522;28;20047;-41
2023/01/15 12:04:34;;;;;;;3.00;1.27;;;7.60;44.70;;;;;;20463943;28;20102;-42
2023/01/15 12:14:47;;;;;;;6.10;2.22;;;7.50;47.00;;;;;;20420949;28;20898;-42
2023/01/15 12:25:12;;;;;;;4.75;2.17;;;7.40;53.70;;;;;;20468699;28;20698;-42
2023/01/15 12:35:33;;;;;;;4.65;2.13;;;6.80;73.30;;;;;;20458315;28;20636;-42
2023/01/15 12:45:42;;;;;;;5.00;1.58;;;6.60;83.90;;;;;;20468659;28;20614;-41
2023/01/15 12:56:08;;;;;;;11.65;1.13;;;6.70;86.20;;;;;;20465993;28;20911;-42
2023/01/15 13:06:13;;;;;;;13.05;3.00;;;6.80;83.30;;;;;;20444340;28;20094;-42
2023/01/15 13:16:22;;;;;;;6.40;1.77;;;7.00;77.30;;;;;;20470929;28;20073;-42
2023/01/15 13:26:44;;;;;;;5.22;1.05;;;7.60;61.90;;;;;;20464926;28;20079;-42
2023/01/15 13:36:47;;;;;;;5.53;1.75;;;7.80;44.00;;;;;;20474882;28;21810;-42
2023/01/15 13:47:03;;;;;;;2.78;0.80;;;8.00;39.30;;;;;;20486732;28;20042;-42
2023/01/15 13:57:23;;;;;;;3.80;1.80;;;8.00;37.40;;;;;;20477605;28;20039;-42
2023/01/15 14:07:35;;;;;;;2.22;0.95;;;8.10;36.30;;;;;;20473305;28;20059;-42
2023/01/15 14:17:55;;;;;;;5.97;2.00;;;8.20;35.50;;;;;;20458917;28;21953;-42
2023/01/15 14:28:12;;;;;;;6.95;1.63;;;8.30;36.20;;;;;;20470820;28;20899;-41
2023/01/15 14:38:19;;;;;;;4.88;1.02;;;8.20;35.30;;;;;;20476842;28;20486;-42
2023/01/15 14:48:29;;;;;;;4.30;1.27;;;8.30;36.30;;;;;;20477556;28;20067;-42
2023/01/15 14:58:37;;;;;;;3.72;1.13;;;8.20;35.70;;;;;;20475388;28;21918;-42
2023/01/15 15:08:41;;;;;;;5.13;1.17;;;7.90;37.90;;;;;;20474350;28;22316;-42
2023/01/15 15:19:01;;;;;;;4.80;1.15;;;7.80;39.00;;;;;;20470108;28;20079;-42
2023/01/15 15:29:10;;;;;;;5.22;1.52;;;7.80;40.30;;;;;;20463069;28;20106;-42
2023/01/15 15:39:46;;;;;;;2.90;1.20;;;7.70;37.90;;;;;;20457963;28;20189;-42
2023/01/15 15:49:47;;;;;;;11.57;2.13;;;7.70;40.10;;;;;;20465686;28;21206;-42
2023/01/15 15:59:50;;;;;;;1.85;0.57;;;7.60;42.00;;;;;;20479860;28;20046;-41
2023/01/15 16:09:58;;;;;;;0.75;0.30;;;7.30;56.20;;;;;;20473502;28;20121;-42
2023/01/15 16:19:59;;;;;;;0.82;0.30;;;6.20;78.60;;;;;;20483273;28;20299;-43
2023/01/15 16:30:03;;;;;;;2.03;0.40;;;5.80;92.10;;;;;;20455492;28;20238;-43
2023/01/15 16:40:05;;;;;;;4.30;1.98;;;5.70;95.30;;;;;;20461628;28;20784;-42
2023/01/15 16:50:21;;;;;;;3.50;1.02;;;5.60;99.50;;;;;;20467607;28;20046;-42
2023/01/15 17:00:29;;;;;;;2.17;1.05;;;5.60;99.90;;;;;;20475386;28;20043;-41
2023/01/15 17:10:30;;;;;;;2.75;0.80;;;5.70;99.90;;;;;;20461113;28;20928;-41
2023/01/15 17:20:33;;;;;;;5.65;1.60;;;5.90;99.90;;;;;;20457308;28;20380;-41
2023/01/15 17:30:34;;;;;;;4.38;1.30;;;6.00;99.10;;;;;;20465238;28;20471;-42
2023/01/15 17:40:35;;;;;;;4.30;1.77;;;6.00;99.90;;;;;;20456469;28;20450;-41
2023/01/15 17:50:36;;;;;;;4.53;1.58;;;5.90;96.20;;;;;;20460131;28;20499;-41
2023/01/15 18:10:57;;;;;;;3.92;1.35;;;5.80;94.70;;;;;;20476512;28;20884;-41
2023/01/15 18:20:59;;;;;;;2.08;0.75;;;5.80;92.70;;;;;;20478021;28;20134;-41
2023/01/15 18:31:03;;;;;;;1.65;0.85;;;5.70;90.90;;;;;;20480068;28;21948;-41
2023/01/15 18:46:42;;;;;;;2.63;1.20;;;5.60;91.10;;;;;;20444873;28;20142;-41
2023/01/15 19:02:19;;;;;;;3.47;1.45;;;5.60;85.20;;;;;;20467908;28;20062;-41
2023/01/15 19:12:20;;;;;;;0.38;0.22;;;5.50;81.30;;;;;;20473039;28;20601;-42
2023/01/15 19:32:43;;;;;;;0.95;0.40;;;5.20;84.40;;;;;;20470889;28;20909;-42
2023/01/15 19:53:09;;;;;;;3.08;1.60;;;5.10;84.20;;;;;;20457180;28;20495;-42
2023/01/15 20:03:13;;;;;;;1.15;0.50;;;5.00;83.70;;;;;;20482493;28;20043;-42
2023/01/15 20:23:38;;;;;;;1.00;0.60;;;4.90;83.80;;;;;;20474577;28;21003;-42
2023/01/15 20:33:39;;;;;;;6.00;0.73;;;4.90;84.40;;;;;;20470231;28;20610;-42
2023/01/15 20:54:21;;;;;;;0.90;0.50;;;4.90;84.00;;;;;;20305203;28;20098;-42
2023/01/15 21:04:22;;;;;;;1.92;0.90;;;4.90;84.20;;;;;;20470178;28;20102;-42
2023/01/15 21:14:23;;;;;;;1.98;0.80;;;4.80;88.20;;;;;;20470649;28;20042;-42
2023/01/15 21:24:24;;;;;;;2.55;1.23;;;4.70;91.20;;;;;;20475155;28;20039;-41
2023/01/15 21:34:25;;;;;;;2.25;1.00;;;4.60;92.00;;;;;;20470967;28;20129;-42
2023/01/15 21:54:31;;;;;;;2.42;1.17;;;4.70;95.50;;;;;;20488620;28;20348;-42
2023/01/15 22:04:34;;;;;;;6.07;1.42;;;4.80;96.60;;;;;;20491036;28;20099;-42
2023/01/15 22:14:35;;;;;;;2.78;1.08;;;4.90;96.90;;;;;;20478824;28;20043;-42
2023/01/15 22:24:38;;;;;;;6.75;2.35;;;4.90;97.90;;;;;;20478294;28;20047;-42
2023/01/15 22:34:39;;;;;;;2.63;1.25;;;5.00;98.20;;;;;;20476243;28;21152;-42
2023/01/15 22:44:44;;;;;;;4.70;1.23;;;5.00;98.10;;;;;;20477128;28;20086;-42
2023/01/15 22:54:45;;;;;;;4.05;1.77;;;5.10;96.40;;;;;;20473843;28;20514;-42
2023/01/15 23:04:47;;;;;;;1.85;0.73;;;5.20;95.70;;;;;;20473027;28;20086;-42
2023/01/15 23:14:49;;;;;;;1.88;1.00;;;5.20;95.80;;;;;;20473439;28;20053;-42
2023/01/15 23:24:50;;;;;;;1.98;0.70;;;5.30;97.00;;;;;;20473341;28;20497;-42
2023/01/15 23:34:51;;;;;;;3.90;1.45;;;5.20;98.60;;;;;;20471832;28;20962;-42
2023/01/15 23:55:11;;;;;;;2.75;1.33;;;4.90;99.90;;;;;;20475385;28;20039;-42
